createdAt,value
2019-05-01T00:01:30.243Z,37.85
2019-05-01T00:04:39.202Z,39.35
2019-05-01T00:07:21.881Z,39.75
2019-05-01T00:09:59.139Z,40.80
2019-05-01T00:12:34.520Z,38.88
2019-05-01T00:15:10.331Z,41.35
2019-05-01T00:17:45.789Z,40.58
2019-05-01T00:20:21.139Z,42.53
2019-05-01T00:22:56.473Z,42.13
2019-05-01T00:25:31.893Z,41.20
2019-05-01T00:28:07.628Z,42.10
2019-05-01T00:30:43.090Z,39.20
2019-05-01T00:33:18.593Z,40.20
2019-05-01T00:35:54.051Z,40.38
2019-05-01T00:38:29.357Z,40.20
2019-05-01T00:41:05.002Z,39.78
2019-05-01T00:43:40.343Z,38.92
2019-05-01T00:46:15.704Z,39.40
2019-05-01T00:48:51.162Z,37.15
2019-05-01T00:51:26.646Z,35.98
2019-05-01T00:54:02.060Z,37.55
2019-05-01T00:56:56.462Z,36.73
2019-05-01T00:59:44.724Z,37.42
2019-05-01T01:02:41.252Z,37.40
2019-05-01T01:05:20.616Z,37.98
2019-05-01T01:07:56.074Z,38.35
2019-05-01T01:10:38.483Z,37.08
2019-05-01T01:13:13.868Z,38.58
2019-05-01T01:15:49.160Z,38.55
2019-05-01T01:18:25.568Z,37.70
2019-05-01T01:21:00.932Z,39.23
2019-05-01T01:23:36.602Z,39.03
2019-05-01T01:26:11.985Z,39.25
2019-05-01T01:28:47.589Z,37.15
2019-05-01T01:31:22.988Z,38.98
2019-05-01T01:33:58.419Z,38.23
2019-05-01T01:36:33.755Z,39.95
2019-05-01T01:39:09.303Z,35.70
2019-05-01T01:41:45.773Z,39.20
2019-05-01T01:44:31.161Z,38.05
2019-05-01T01:47:06.553Z,37.58
2019-05-01T01:49:43.603Z,37.78
2019-05-01T01:52:19.140Z,36.95
2019-05-01T01:54:55.359Z,37.90
2019-05-01T01:57:31.340Z,39.27
2019-05-01T02:00:08.616Z,37.67
2019-05-01T02:02:51.036Z,38.58
2019-05-01T02:05:29.746Z,36.48
2019-05-01T02:08:05.419Z,39.27
2019-05-01T02:10:43.006Z,38.50
2019-05-01T02:13:17.941Z,38.65
2019-05-01T02:15:53.599Z,36.53
2019-05-01T02:18:29.038Z,39.13
2019-05-01T02:21:04.404Z,40.33
2019-05-01T02:23:39.786Z,40.38
2019-05-01T02:26:16.882Z,41.50
2019-05-01T02:29:20.256Z,39.90
2019-05-01T02:31:57.546Z,40.50
2019-05-01T02:34:33.013Z,42.83
2019-05-01T02:37:11.118Z,42.43
2019-05-01T02:39:48.543Z,40.25
2019-05-01T02:42:28.284Z,43.08
2019-05-01T02:45:05.645Z,42.15
2019-05-01T02:47:44.071Z,41.18
2019-05-01T02:50:21.512Z,39.10
2019-05-01T02:52:57.049Z,43.73
2019-05-01T02:55:38.797Z,41.37
2019-05-01T02:58:14.737Z,39.20
2019-05-01T03:00:50.149Z,42.23
2019-05-01T03:03:25.746Z,40.43
2019-05-01T03:06:02.261Z,40.28
2019-05-01T03:08:39.128Z,41.48
2019-05-01T03:11:14.437Z,41.02
2019-05-01T03:13:52.373Z,40.28
2019-05-01T03:16:27.887Z,39.83
2019-05-01T03:19:06.803Z,41.55
2019-05-01T03:21:47.723Z,41.28
2019-05-01T03:24:25.296Z,41.15
2019-05-01T03:27:00.854Z,43.40
2019-05-01T03:29:36.541Z,42.25
2019-05-01T03:32:18.231Z,40.00
2019-05-01T03:34:53.308Z,41.92
2019-05-01T03:37:31.765Z,40.83
2019-05-01T03:40:07.505Z,42.90
2019-05-01T03:42:43.122Z,43.85
2019-05-01T03:45:18.819Z,42.35
2019-05-01T03:47:54.788Z,44.23
2019-05-01T03:50:30.210Z,42.38
2019-05-01T03:53:05.703Z,42.55
2019-05-01T03:55:41.473Z,42.90
2019-05-01T03:58:17.314Z,42.95
2019-05-01T04:01:24.023Z,43.65
2019-05-01T04:04:06.058Z,41.63
2019-05-01T04:06:41.689Z,41.65
2019-05-01T04:09:17.178Z,42.10
2019-05-01T04:11:52.541Z,41.83
2019-05-01T04:14:27.959Z,42.23
2019-05-01T04:17:18.800Z,41.92
2019-05-01T04:19:55.171Z,44.80
2019-05-01T04:22:30.737Z,40.43
2019-05-01T04:25:06.642Z,45.35
2019-05-01T04:27:43.999Z,48.45
2019-05-01T04:30:31.928Z,47.85
2019-05-01T04:33:12.730Z,41.68
2019-05-01T04:35:53.481Z,43.13
2019-05-01T04:38:28.933Z,47.43
2019-05-01T04:41:04.404Z,46.00
2019-05-01T04:43:40.594Z,45.40
2019-05-01T04:46:16.377Z,44.42
2019-05-01T04:48:51.879Z,45.28
2019-05-01T04:51:27.697Z,44.27
2019-05-01T04:54:03.446Z,43.45
2019-05-01T04:56:38.761Z,45.60
2019-05-01T04:59:14.570Z,45.50
2019-05-01T05:01:56.960Z,43.38
2019-05-01T05:04:32.223Z,46.70
2019-05-01T05:07:07.980Z,45.65
2019-05-01T05:09:44.688Z,45.38
2019-05-01T05:12:37.832Z,43.33
2019-05-01T05:15:38.074Z,46.18
2019-05-01T05:18:14.172Z,46.55
2019-05-01T05:20:50.190Z,47.70
2019-05-01T05:23:25.916Z,47.27
2019-05-01T05:26:01.526Z,45.63
2019-05-01T05:28:38.601Z,47.75
2019-05-01T05:31:14.660Z,45.78
2019-05-01T05:33:50.210Z,47.50
2019-05-01T05:36:28.226Z,46.42
2019-05-01T05:39:18.687Z,49.00
2019-05-01T05:41:55.966Z,46.77
2019-05-01T05:44:31.458Z,50.25
2019-05-01T05:47:07.141Z,50.80
2019-05-01T05:49:42.576Z,50.92
2019-05-01T05:52:40.077Z,48.87
2019-05-01T05:55:27.491Z,51.60
2019-05-01T05:58:21.617Z,48.65
2019-05-01T06:01:34.083Z,47.45
2019-05-01T06:04:28.702Z,46.20
2019-05-01T06:13:32.425Z,50.55
2019-05-01T06:16:17.437Z,49.05
2019-05-01T06:19:14.595Z,47.93
2019-05-01T06:22:26.337Z,49.33
2019-05-01T06:25:21.312Z,48.75
2019-05-01T06:27:50.896Z,48.58
2019-05-01T06:30:26.342Z,48.95
2019-05-01T06:33:04.207Z,46.85
2019-05-01T06:35:39.432Z,45.60
2019-05-01T06:38:17.477Z,44.63
2019-05-01T06:40:58.145Z,43.58
2019-05-01T06:44:13.222Z,44.18
2019-05-01T06:47:10.940Z,41.45
2019-05-01T06:50:01.267Z,43.42
2019-05-01T06:52:39.922Z,41.05
2019-05-01T06:55:15.484Z,42.08
2019-05-01T06:57:51.206Z,41.70
2019-05-01T07:00:26.670Z,39.73
2019-05-01T07:03:06.037Z,40.50
2019-05-01T07:05:40.036Z,38.25
2019-05-01T07:08:24.377Z,37.15
2019-05-01T07:10:52.883Z,38.65
2019-05-01T07:13:42.207Z,36.83
2019-05-01T07:16:17.664Z,37.35
2019-05-01T07:18:57.958Z,37.15
2019-05-01T07:21:32.814Z,36.08
2019-05-01T07:24:09.267Z,36.38
2019-05-01T07:26:47.991Z,36.60
2019-05-01T07:29:23.495Z,36.75
2019-05-01T07:32:01.707Z,38.53
2019-05-01T07:34:36.019Z,36.65
2019-05-01T07:37:11.771Z,37.00
2019-05-01T07:39:50.011Z,36.73
2019-05-01T07:42:31.639Z,37.17
2019-05-01T07:45:26.657Z,38.28
2019-05-01T07:48:05.641Z,36.77
2019-05-01T07:50:39.550Z,38.35
2019-05-01T07:53:14.996Z,38.30
2019-05-01T07:55:52.720Z,36.93
2019-05-01T07:58:27.874Z,38.75
2019-05-01T08:01:13.038Z,38.63
2019-05-01T08:03:48.339Z,39.45
2019-05-01T08:06:23.744Z,40.58
2019-05-01T08:09:11.256Z,40.17
2019-05-01T08:11:46.025Z,41.75
2019-05-01T08:14:24.368Z,41.90
2019-05-01T08:16:59.750Z,42.65
2019-05-01T08:19:50.048Z,43.50
2019-05-01T08:22:39.073Z,46.77
2019-05-01T08:25:14.774Z,44.38
2019-05-01T08:28:09.392Z,43.05
2019-05-01T08:31:06.556Z,46.42
2019-05-01T08:33:59.661Z,41.40
2019-05-01T08:36:35.042Z,43.38
2019-05-01T08:39:12.404Z,42.90
2019-05-01T08:41:47.703Z,45.67
2019-05-01T08:44:24.858Z,44.25
2019-05-01T08:47:25.639Z,44.67
2019-05-01T08:50:24.595Z,43.90
2019-05-01T08:52:56.021Z,47.25
2019-05-01T08:55:34.079Z,45.98
2019-05-01T08:58:13.992Z,47.48
2019-05-01T09:00:46.774Z,46.20
2019-05-01T09:03:22.191Z,48.10
2019-05-01T09:05:58.975Z,49.95
2019-05-01T09:08:34.439Z,50.88
2019-05-01T09:11:09.915Z,48.42
2019-05-01T09:13:45.349Z,49.95
2019-05-01T09:16:23.397Z,48.87
2019-05-01T09:18:58.001Z,48.38
2019-05-01T09:21:37.642Z,47.65
2019-05-01T09:24:11.462Z,47.90
2019-05-01T09:26:54.432Z,49.25
2019-05-01T09:29:38.490Z,49.58
2019-05-01T09:32:13.953Z,48.80
2019-05-01T09:34:49.391Z,49.30
2019-05-01T09:37:25.234Z,49.65
2019-05-01T09:40:04.223Z,48.65
2019-05-01T09:42:37.900Z,48.45
2019-05-01T09:45:16.942Z,51.60
2019-05-01T09:47:52.553Z,52.27
2019-05-01T09:50:30.516Z,48.17
2019-05-01T09:53:34.192Z,48.15
2019-05-01T09:56:13.598Z,46.13
2019-05-01T09:58:48.995Z,46.85
2019-05-01T10:01:31.730Z,46.23
2019-05-01T10:04:05.279Z,48.28
2019-05-01T10:06:39.487Z,49.20
2019-05-01T10:09:16.914Z,47.38
2019-05-01T10:11:52.107Z,46.92
2019-05-01T10:14:31.680Z,48.02
2019-05-01T10:17:05.020Z,49.03
2019-05-01T10:19:40.517Z,47.83
2019-05-01T10:22:16.295Z,51.95
2019-05-01T10:24:51.789Z,53.25
2019-05-01T10:27:30.979Z,50.43
2019-05-01T10:30:36.337Z,49.77
2019-05-01T10:33:16.078Z,50.15
2019-05-01T10:36:18.810Z,51.35
2019-05-01T10:38:52.797Z,48.90
2019-05-01T10:41:28.623Z,49.60
2019-05-01T10:44:05.184Z,48.70
2019-05-01T10:46:43.169Z,49.75
2019-05-01T10:49:18.549Z,49.25
2019-05-01T10:51:54.029Z,50.60
2019-05-01T10:54:29.440Z,50.60
2019-05-01T10:57:08.966Z,50.45
2019-05-01T10:59:44.399Z,50.60
2019-05-01T11:02:20.026Z,50.85
2019-05-01T11:04:55.523Z,51.68
2019-05-01T11:07:31.104Z,52.10
2019-05-01T11:10:08.113Z,51.18
2019-05-01T11:12:43.547Z,50.23
2019-05-01T11:15:19.473Z,48.02
2019-05-01T11:17:54.888Z,51.55
2019-05-01T11:20:30.322Z,51.37
2019-05-01T11:23:05.803Z,53.10
2019-05-01T11:25:41.480Z,50.58
2019-05-01T11:28:16.947Z,51.55
2019-05-01T11:30:52.338Z,50.43
2019-05-01T11:33:50.404Z,50.03
2019-05-01T11:36:48.215Z,52.50
2019-05-01T11:39:36.064Z,52.08
2019-05-01T11:42:13.858Z,51.50
2019-05-01T11:44:49.282Z,49.67
2019-05-01T11:47:25.814Z,51.33
2019-05-01T11:50:01.111Z,51.98
2019-05-01T11:52:36.599Z,51.55
2019-05-01T11:55:13.441Z,51.42
2019-05-01T11:57:48.988Z,53.63
2019-05-01T12:00:24.506Z,52.03
2019-05-01T12:02:59.938Z,53.42
2019-05-01T12:05:35.267Z,53.63
2019-05-01T12:08:10.667Z,52.35
2019-05-01T12:10:46.389Z,51.95
2019-05-01T12:13:21.915Z,50.95
2019-05-01T12:16:04.184Z,54.27
2019-05-01T12:18:39.536Z,54.13
2019-05-01T12:21:14.835Z,55.25
2019-05-01T12:23:50.501Z,55.48
2019-05-01T12:26:25.829Z,54.65
2019-05-01T12:29:01.393Z,55.23
2019-05-01T12:31:36.819Z,56.80
2019-05-01T12:34:12.295Z,55.60
2019-05-01T12:36:48.336Z,56.23
2019-05-01T12:39:23.862Z,57.05
2019-05-01T12:42:00.463Z,55.73
2019-05-01T12:44:35.884Z,56.68
2019-05-01T12:47:39.048Z,57.03
2019-05-01T12:50:15.594Z,56.88
2019-05-01T12:53:21.682Z,58.17
2019-05-01T12:56:15.955Z,57.20
2019-05-01T12:58:51.335Z,57.93
2019-05-01T13:01:26.814Z,56.53
2019-05-01T13:04:02.270Z,59.50
2019-05-01T13:06:48.881Z,57.67
2019-05-01T13:09:14.651Z,55.58
2019-05-01T13:11:50.202Z,57.00
2019-05-01T13:14:25.632Z,54.70
2019-05-01T13:17:01.030Z,57.20
2019-05-01T13:19:36.455Z,56.10
2019-05-01T13:22:11.927Z,56.20
2019-05-01T13:24:50.467Z,55.17
2019-05-01T13:27:33.555Z,51.75
2019-05-01T13:30:23.561Z,55.70
2019-05-01T13:33:00.603Z,56.10
2019-05-01T13:35:35.989Z,52.50
2019-05-01T13:38:11.583Z,54.95
2019-05-01T13:40:47.007Z,53.50
2019-05-01T13:43:22.666Z,53.42
2019-05-01T13:45:57.979Z,50.75
2019-05-01T13:48:33.431Z,52.75
2019-05-01T13:51:08.959Z,52.15
2019-05-01T13:53:44.358Z,53.38
2019-05-01T13:56:19.731Z,52.17
2019-05-01T13:58:55.170Z,51.33
2019-05-01T14:01:33.076Z,51.68
2019-05-01T14:04:08.682Z,54.45
2019-05-01T14:06:44.229Z,54.10
2019-05-01T14:09:29.668Z,51.63
2019-05-01T14:12:05.165Z,50.63
2019-05-01T14:14:40.660Z,51.50
2019-05-01T14:17:16.140Z,48.10
2019-05-01T14:20:01.938Z,49.15
2019-05-01T14:23:05.398Z,54.60
2019-05-01T14:25:58.547Z,51.83
2019-05-01T14:28:34.288Z,53.35
2019-05-01T14:31:09.724Z,51.33
2019-05-01T14:33:45.124Z,51.48
2019-05-01T14:36:27.893Z,54.58
2019-05-01T14:39:04.745Z,55.67
2019-05-01T14:41:41.915Z,53.68
2019-05-01T14:44:19.214Z,52.10
2019-05-01T14:46:55.333Z,52.23
2019-05-01T14:49:33.712Z,52.27
2019-05-01T14:52:14.116Z,53.13
2019-05-01T14:54:49.524Z,49.98
2019-05-01T14:57:24.878Z,50.75
2019-05-01T15:00:00.229Z,46.65
2019-05-01T15:02:37.247Z,49.50
2019-05-01T15:05:12.607Z,46.95
2019-05-01T15:07:48.013Z,44.55
2019-05-01T15:10:25.447Z,43.63
2019-05-01T15:13:03.235Z,44.50
2019-05-01T15:15:46.159Z,47.23
2019-05-01T15:18:29.583Z,48.20
2019-05-01T15:21:05.076Z,43.80
2019-05-01T15:23:52.581Z,46.33
2019-05-01T15:26:17.522Z,45.67
2019-05-01T15:28:53.340Z,41.37
2019-05-01T15:31:28.716Z,40.67
2019-05-01T15:34:04.290Z,40.98
2019-05-01T15:36:39.616Z,46.40
2019-05-01T15:39:49.646Z,46.92
2019-05-01T15:42:41.894Z,45.95
2019-05-01T15:45:17.408Z,43.38
2019-05-01T15:47:52.773Z,46.85
2019-05-01T15:50:31.258Z,48.73
2019-05-01T15:53:06.610Z,45.03
2019-05-01T15:55:42.009Z,44.38
2019-05-01T15:58:17.422Z,44.33
2019-05-01T16:00:52.925Z,40.83
2019-05-01T16:03:28.361Z,40.90
2019-05-01T16:06:03.762Z,38.53
2019-05-01T16:08:41.104Z,42.15
2019-05-01T16:11:43.988Z,44.65
2019-05-01T16:14:19.404Z,44.48
2019-05-01T16:16:54.957Z,46.18
2019-05-01T16:19:34.311Z,45.73
2019-05-01T16:22:09.733Z,44.67
2019-05-01T16:24:45.014Z,46.13
2019-05-01T16:27:20.514Z,47.00
2019-05-01T16:30:02.351Z,40.15
2019-05-01T16:32:37.961Z,41.50
2019-05-01T16:35:14.551Z,40.78
2019-05-01T16:37:53.765Z,40.10
2019-05-01T16:40:51.097Z,38.05
2019-05-01T16:43:26.397Z,40.23
2019-05-01T16:46:07.013Z,42.73
2019-05-01T16:48:42.419Z,38.25
2019-05-01T16:51:17.741Z,38.65
2019-05-01T16:53:53.003Z,37.53
2019-05-01T16:56:28.440Z,40.50
2019-05-01T16:59:03.762Z,36.93
2019-05-01T17:02:07.366Z,35.92
2019-05-01T17:04:48.669Z,33.55
2019-05-01T17:07:29.780Z,36.75
2019-05-01T17:10:22.614Z,41.55
2019-05-01T17:12:58.180Z,43.58
2019-05-01T17:15:40.809Z,39.78
2019-05-01T17:18:16.286Z,44.18
2019-05-01T17:20:51.781Z,44.75
2019-05-01T17:23:27.252Z,52.95
2019-05-01T17:26:02.929Z,48.30
2019-05-01T17:28:38.514Z,46.90
2019-05-01T17:31:14.124Z,45.92
2019-05-01T17:33:50.920Z,44.95
2019-05-01T17:36:26.727Z,48.05
2019-05-01T17:39:02.231Z,50.55
2019-05-01T17:41:39.135Z,50.45
2019-05-01T17:44:14.465Z,51.20
2019-05-01T17:46:53.147Z,50.28
2019-05-01T17:49:28.553Z,53.63
2019-05-01T17:52:04.189Z,54.40
2019-05-01T17:54:39.566Z,51.95
2019-05-01T17:57:15.087Z,52.55
2019-05-01T17:59:52.419Z,53.30
2019-05-01T18:02:34.776Z,54.20
2019-05-01T18:05:32.285Z,54.03
2019-05-01T18:08:07.729Z,55.55
2019-05-01T18:10:43.091Z,52.10
2019-05-01T18:13:18.645Z,53.80
2019-05-01T18:15:54.107Z,55.95
2019-05-01T18:18:29.586Z,52.00
2019-05-01T18:21:05.024Z,53.23
2019-05-01T18:24:00.057Z,54.45
2019-05-01T18:27:03.550Z,54.13
2019-05-01T18:29:47.010Z,52.00
2019-05-01T18:32:51.977Z,53.42
2019-05-01T18:35:24.456Z,53.23
2019-05-01T18:38:06.273Z,51.50
2019-05-01T18:40:45.373Z,53.70
2019-05-01T18:43:20.889Z,51.05
2019-05-01T18:45:57.964Z,53.50
2019-05-01T18:48:44.609Z,55.33
2019-05-01T18:51:21.455Z,52.38
2019-05-01T18:53:57.776Z,55.20
2019-05-01T18:56:38.147Z,51.85
2019-05-01T18:59:12.386Z,55.40
2019-05-01T19:01:49.721Z,52.55
2019-05-01T19:04:28.020Z,54.13
2019-05-01T19:07:04.459Z,53.92
2019-05-01T19:09:39.991Z,53.70
2019-05-01T19:12:16.094Z,51.40
2019-05-01T19:14:51.578Z,53.17
2019-05-01T19:17:27.094Z,53.30
2019-05-01T19:20:02.479Z,51.90
2019-05-01T19:22:37.932Z,52.48
2019-05-01T19:25:16.051Z,51.02
2019-05-01T19:27:51.572Z,52.90
2019-05-01T19:30:27.006Z,51.75
2019-05-01T19:33:02.707Z,50.52
2019-05-01T19:35:38.091Z,51.55
2019-05-01T19:38:14.427Z,49.70
2019-05-01T19:40:49.813Z,50.73
2019-05-01T19:43:25.339Z,48.78
2019-05-01T19:46:00.871Z,51.80
2019-05-01T19:48:36.496Z,48.80
2019-05-01T19:51:12.093Z,49.88
2019-05-01T19:53:51.752Z,49.10
2019-05-01T19:56:24.572Z,49.03
2019-05-01T19:59:00.208Z,49.65
2019-05-01T20:01:38.413Z,47.78
2019-05-01T20:04:15.134Z,48.55
2019-05-01T20:06:50.986Z,48.15
2019-05-01T20:09:26.786Z,48.60
2019-05-01T20:12:02.360Z,47.75
2019-05-01T20:14:37.882Z,47.40
2019-05-01T20:17:13.497Z,47.85
2019-05-01T20:19:48.989Z,48.30
2019-05-01T20:22:24.403Z,47.43
2019-05-01T20:24:59.910Z,48.70
2019-05-01T20:27:36.952Z,50.10
2019-05-01T20:30:13.770Z,51.55
2019-05-01T20:32:49.298Z,51.50
2019-05-01T20:35:28.458Z,52.20
2019-05-01T20:38:01.882Z,52.23
2019-05-01T20:40:38.397Z,53.35
2019-05-01T20:43:13.985Z,53.38
2019-05-01T20:45:51.246Z,56.55
2019-05-01T20:48:26.659Z,57.50
2019-05-01T20:51:02.061Z,54.25
2019-05-01T20:53:37.487Z,55.92
2019-05-01T20:56:33.438Z,57.08
2019-05-01T20:59:08.879Z,55.85
2019-05-01T21:01:44.297Z,57.27
2019-05-01T21:04:37.323Z,56.75
2019-05-01T21:07:33.576Z,55.43
2019-05-01T21:10:09.248Z,54.45
2019-05-01T21:12:44.892Z,54.77
2019-05-01T21:15:24.856Z,55.10
2019-05-01T21:17:57.384Z,53.83
2019-05-01T21:20:33.888Z,54.83
2019-05-01T21:23:11.656Z,55.88
2019-05-01T21:25:47.082Z,56.73
2019-05-01T21:28:24.013Z,55.48
2019-05-01T21:30:59.452Z,56.00
2019-05-01T21:33:34.815Z,55.95
2019-05-01T21:36:10.214Z,56.40
2019-05-01T21:38:46.714Z,56.55
2019-05-01T21:41:22.505Z,55.05
2019-05-01T21:43:57.951Z,56.05
2019-05-01T21:46:34.017Z,55.98
2019-05-01T21:49:09.663Z,58.48
2019-05-01T21:51:46.298Z,56.58
2019-05-01T21:54:22.033Z,55.90
2019-05-01T21:56:59.008Z,56.08
2019-05-01T21:59:35.317Z,56.10
2019-05-01T22:02:12.012Z,57.65
2019-05-01T22:04:47.475Z,58.13
2019-05-01T22:07:23.843Z,59.18
2019-05-01T22:10:00.026Z,58.85
2019-05-01T22:12:35.468Z,59.33
2019-05-01T22:15:19.242Z,59.23
2019-05-01T22:18:02.227Z,60.15
2019-05-01T22:20:42.763Z,58.60
2019-05-01T22:23:21.918Z,60.00
2019-05-01T22:25:58.797Z,60.20
2019-05-01T22:28:54.812Z,59.90
2019-05-01T22:31:52.899Z,57.35
2019-05-01T22:34:39.754Z,60.25
2019-05-01T22:37:15.162Z,61.15
2019-05-01T22:39:58.669Z,62.15
2019-05-01T22:42:34.089Z,58.92
2019-05-01T22:45:16.397Z,58.33
2019-05-01T22:47:52.277Z,60.40
2019-05-01T22:50:27.750Z,60.45
2019-05-01T22:53:03.198Z,60.12
2019-05-01T22:55:38.602Z,60.65
2019-05-01T22:58:14.061Z,64.07
2019-05-01T23:00:52.533Z,62.73
2019-05-01T23:03:40.820Z,62.45
2019-05-01T23:06:13.710Z,61.08
2019-05-01T23:08:49.101Z,64.75
2019-05-01T23:11:26.138Z,64.82
2019-05-01T23:14:08.657Z,61.88
2019-05-01T23:16:51.152Z,61.53
2019-05-01T23:19:27.839Z,60.60
2019-05-01T23:22:03.868Z,60.48
2019-05-01T23:24:39.324Z,61.90
2019-05-01T23:27:15.801Z,61.77
2019-05-01T23:29:51.221Z,62.62
2019-05-01T23:32:26.873Z,62.43
2019-05-01T23:35:02.305Z,63.73
2019-05-01T23:37:37.685Z,63.73
2019-05-01T23:40:15.507Z,60.67
2019-05-01T23:42:53.704Z,58.73
2019-05-01T23:45:27.324Z,60.30
2019-05-01T23:48:02.693Z,60.45
2019-05-01T23:50:38.177Z,60.10
2019-05-01T23:53:13.889Z,58.25
2019-05-01T23:55:54.720Z,63.40
2019-05-01T23:58:27.533Z,60.28
